Time;durP1;ratioP1;P1;durP2;ratioP2;P2;SDS_P1;SDS_P2;PMS_P1;PMS_P2;Temp;Humidity;BMP_temperature;BMP_pressure;BME280_temperature;BME280_humidity;BME280_pressure;Samples;Min_cycle;Max_cycle;Signal;HPM_P1;HPM_P2
2022/12/18 00:01:33;;;;;;;28.48;18.10;;;;;;;;;;5026338;28;20029;-66
2022/12/18 00:04:01;;;;;;;53.50;26.52;;;;;;;;;;5025426;28;20092;-66
2022/12/18 00:06:28;;;;;;;71.55;26.20;;;;;;;;;;5026727;28;20753;-66
2022/12/18 00:08:56;;;;;;;37.85;16.73;;;;;;;;;;5024747;28;20044;-66
2022/12/18 00:11:24;;;;;;;37.95;15.70;;;;;;;;;;5026872;28;20038;-66
2022/12/18 00:13:49;;;;;;;29.83;20.15;;;;;;;;;;5026004;28;20033;-66
2022/12/18 00:16:20;;;;;;;72.05;22.90;;;;;;;;;;5028099;28;20606;-66
2022/12/18 00:18:50;;;;;;;30.13;18.88;;;;;;;;;;5023800;28;20063;-66
2022/12/18 00:21:16;;;;;;;25.83;16.02;;;;;;;;;;5026567;28;20497;-66
2022/12/18 00:23:43;;;;;;;63.65;26.50;;;;;;;;;;5029262;28;20029;-66
2022/12/18 00:26:15;;;;;;;30.90;14.80;;;;;;;;;;5023847;28;20029;-65
2022/12/18 00:28:42;;;;;;;26.38;18.20;;;;;;;;;;5029256;28;20102;-66
2022/12/18 00:31:10;;;;;;;35.97;21.17;;;;;;;;;;5025214;28;20040;-65
2022/12/18 00:33:36;;;;;;;28.87;18.33;;;;;;;;;;5035960;28;20864;-66
2022/12/18 00:36:07;;;;;;;54.92;21.95;;;;;;;;;;5027492;28;20116;-66
2022/12/18 00:38:34;;;;;;;42.42;21.90;;;;;;;;;;5026367;28;20069;-65
2022/12/18 00:41:00;;;;;;;45.75;21.02;;;;;;;;;;5026735;28;20460;-65
2022/12/18 00:43:26;;;;;;;29.45;15.38;;;;;;;;;;5024812;28;20137;-66
2022/12/18 00:45:52;;;;;;;60.00;25.60;;;;;;;;;;5024634;28;20480;-66
2022/12/18 00:48:17;;;;;;;23.50;15.30;;;;;;;;;;5024354;28;20072;-66
2022/12/18 00:50:43;;;;;;;22.75;15.52;;;;;;;;;;5024134;28;20065;-65
2022/12/18 00:53:09;;;;;;;11.95;9.52;;;;;;;;;;5029412;28;20029;-64
2022/12/18 00:55:34;;;;;;;33.67;20.95;;;;;;;;;;5032064;28;20460;-65
2022/12/18 00:58:00;;;;;;;14.32;12.73;;;;;;;;;;5027163;28;20029;-66
2022/12/18 01:00:25;;;;;;;40.67;17.95;;;;;;;;;;5027940;28;20037;-65
2022/12/18 01:02:51;;;;;;;17.58;12.63;;;;;;;;;;5028663;28;20047;-66
2022/12/18 01:05:17;;;;;;;33.63;16.45;;;;;;;;;;5030139;28;20581;-66
2022/12/18 01:07:42;;;;;;;60.35;28.23;;;;;;;;;;5028468;28;20057;-66
2022/12/18 01:10:12;;;;;;;40.65;21.55;;;;;;;;;;5029373;28;20029;-66
2022/12/18 01:12:37;;;;;;;30.70;17.23;;;;;;;;;;5027729;28;20084;-66
2022/12/18 01:15:05;;;;;;;33.65;17.75;;;;;;;;;;5027796;28;20053;-66
2022/12/18 01:17:31;;;;;;;24.42;15.45;;;;;;;;;;5026540;28;20115;-66
2022/12/18 01:19:56;;;;;;;34.17;18.60;;;;;;;;;;5028200;28;20443;-66
2022/12/18 01:22:22;;;;;;;34.92;14.68;;;;;;;;;;5026773;28;20108;-66
2022/12/18 01:24:47;;;;;;;14.82;9.85;;;;;;;;;;5028091;28;20033;-66
2022/12/18 01:27:13;;;;;;;40.90;18.67;;;;;;;;;;5031937;28;20055;-66
2022/12/18 01:29:39;;;;;;;22.55;11.82;;;;;;;;;;5029316;28;20033;-66
2022/12/18 01:32:04;;;;;;;22.65;14.45;;;;;;;;;;5027877;28;20033;-65
2022/12/18 01:34:30;;;;;;;51.95;21.95;;;;;;;;;;5031373;28;20033;-64
2022/12/18 01:36:56;;;;;;;25.58;13.18;;;;;;;;;;5028436;28;20128;-66
2022/12/18 01:39:21;;;;;;;11.45;10.48;;;;;;;;;;5025961;28;20116;-66
2022/12/18 01:42:02;;;;;;;34.45;18.05;;;;;;;;;;5027224;28;20128;-66
2022/12/18 01:44:46;;;;;;;17.20;12.30;;;;;;;;;;5030256;28;20099;-66
2022/12/18 01:47:20;;;;;;;59.92;24.20;;;;;;;;;;5025760;28;20053;-66
2022/12/18 01:49:46;;;;;;;21.10;15.32;;;;;;;;;;5027130;28;20044;-66
2022/12/18 01:52:12;;;;;;;14.50;11.10;;;;;;;;;;5028928;28;20463;-66
2022/12/18 01:54:37;;;;;;;15.82;10.70;;;;;;;;;;5029734;28;20500;-66
2022/12/18 01:57:03;;;;;;;15.70;10.65;;;;;;;;;;5027830;28;20037;-64
2022/12/18 01:59:31;;;;;;;6.93;6.50;;;;;;;;;;5028663;28;20050;-66
2022/12/18 02:01:57;;;;;;;9.52;7.72;;;;;;;;;;5027653;28;20056;-66
2022/12/18 02:04:25;;;;;;;35.13;18.08;;;;;;;;;;5027864;28;20037;-66
2022/12/18 02:07:00;;;;;;;15.30;11.57;;;;;;;;;;5024003;28;20038;-66
2022/12/18 02:09:36;;;;;;;17.77;14.18;;;;;;;;;;5026274;28;20038;-66
2022/12/18 02:12:19;;;;;;;19.73;12.38;;;;;;;;;;5025897;28;20039;-65
2022/12/18 02:15:04;;;;;;;16.65;13.23;;;;;;;;;;5028697;28;20366;-66
2022/12/18 02:17:48;;;;;;;30.40;19.73;;;;;;;;;;5026535;28;20090;-66
2022/12/18 02:20:42;;;;;;;13.23;11.68;;;;;;;;;;5028232;28;20453;-66
2022/12/18 02:23:32;;;;;;;26.88;13.52;;;;;;;;;;5027155;28;20033;-66
2022/12/18 02:26:18;;;;;;;18.42;11.95;;;;;;;;;;5028226;28;20021;-65
2022/12/18 02:28:49;;;;;;;20.65;15.15;;;;;;;;;;5027655;28;20029;-65
2022/12/18 02:31:21;;;;;;;15.48;12.90;;;;;;;;;;5026685;28;20382;-66
2022/12/18 02:33:50;;;;;;;13.02;11.57;;;;;;;;;;5025513;28;20040;-65
2022/12/18 02:36:17;;;;;;;11.43;9.38;;;;;;;;;;5027001;28;20071;-66
2022/12/18 02:38:45;;;;;;;18.20;12.57;;;;;;;;;;5028935;28;20366;-65
2022/12/18 02:41:15;;;;;;;15.85;13.70;;;;;;;;;;5029148;28;20097;-64
2022/12/18 02:43:50;;;;;;;18.02;12.77;;;;;;;;;;5025432;28;20041;-65
2022/12/18 02:46:49;;;;;;;12.23;10.77;;;;;;;;;;5040994;28;20042;-66
2022/12/18 02:49:15;;;;;;;17.13;12.98;;;;;;;;;;5027721;28;20044;-67
2022/12/18 02:51:55;;;;;;;11.65;10.55;;;;;;;;;;5030013;28;20168;-67
2022/12/18 02:54:49;;;;;;;22.70;13.73;;;;;;;;;;5026696;28;20087;-67
2022/12/18 02:57:29;;;;;;;12.77;9.60;;;;;;;;;;5025739;28;20046;-67
2022/12/18 03:00:09;;;;;;;13.55;12.20;;;;;;;;;;5028538;28;20041;-67
2022/12/18 03:02:44;;;;;;;11.20;9.60;;;;;;;;;;5025277;28;20045;-66
2022/12/18 03:05:19;;;;;;;21.00;13.75;;;;;;;;;;5027095;28;20037;-67
2022/12/18 03:07:55;;;;;;;9.90;9.00;;;;;;;;;;5026953;28;20103;-67
2022/12/18 03:10:34;;;;;;;14.77;10.85;;;;;;;;;;5024167;28;20103;-67
2022/12/18 03:13:06;;;;;;;16.92;10.98;;;;;;;;;;5003241;28;20045;-67
2022/12/18 03:15:36;;;;;;;15.52;12.02;;;;;;;;;;5004727;28;20065;-67
2022/12/18 03:18:20;;;;;;;12.63;9.38;;;;;;;;;;4997717;28;20084;-67
2022/12/18 03:20:47;;;;;;;13.45;11.88;;;;;;;;;;5004645;28;20115;-67
2022/12/18 03:23:22;;;;;;;11.35;10.20;;;;;;;;;;5023431;28;20038;-67
2022/12/18 03:25:52;;;;;;;12.65;11.32;;;;;;;;;;5004600;28;20095;-65
2022/12/18 03:28:22;;;;;;;5.40;5.13;;;;;;;;;;5002591;28;20108;-65
2022/12/18 03:30:58;;;;;;;9.25;7.50;;;;;;;;;;5004413;28;20030;-65
2022/12/18 03:33:29;;;;;;;13.85;9.35;;;;;;;;;;5002872;28;20189;-65
2022/12/18 03:35:56;;;;;;;15.63;11.80;;;;;;;;;;5003318;28;20030;-65
2022/12/18 03:38:22;;;;;;;27.23;16.65;;;;;;;;;;4999328;28;20038;-65
2022/12/18 03:41:11;;;;;;;36.55;12.07;;;;;;;;;;5003747;28;20034;-66
2022/12/18 03:44:06;;;;;;;8.90;8.02;;;;;;;;;;5004857;28;20073;-66
2022/12/18 03:46:46;;;;;;;8.27;7.57;;;;;;;;;;5003107;28;20038;-66
2022/12/18 03:49:24;;;;;;;20.13;13.13;;;;;;;;;;5003887;28;20045;-65
2022/12/18 03:52:01;;;;;;;20.05;13.43;;;;;;;;;;5004656;28;20083;-66
2022/12/18 03:54:29;;;;;;;13.00;8.13;;;;;;;;;;5003465;28;20121;-66
2022/12/18 03:57:24;;;;;;;11.93;9.75;;;;;;;;;;5004529;28;20519;-66
2022/12/18 03:59:57;;;;;;;13.63;12.30;;;;;;;;;;5004353;28;20066;-66
2022/12/18 04:02:28;;;;;;;15.82;13.02;;;;;;;;;;5003568;28;20489;-66
2022/12/18 04:04:57;;;;;;;29.13;14.25;;;;;;;;;;5018873;28;20567;-66
2022/12/18 04:07:24;;;;;;;5.32;4.95;;;;;;;;;;5005798;28;20111;-66
2022/12/18 04:09:54;;;;;;;18.23;10.40;;;;;;;;;;5005145;28;20456;-66
2022/12/18 04:12:25;;;;;;;13.60;10.90;;;;;;;;;;5002104;28;20043;-66
2022/12/18 04:14:51;;;;;;;9.25;6.38;;;;;;;;;;5004930;28;20038;-65
2022/12/18 04:17:17;;;;;;;7.32;6.47;;;;;;;;;;5005786;28;20042;-65
2022/12/18 04:19:43;;;;;;;9.10;8.25;;;;;;;;;;5021310;28;20104;-66
2022/12/18 04:22:10;;;;;;;5.90;5.38;;;;;;;;;;5003415;28;20034;-66
2022/12/18 04:24:41;;;;;;;19.38;12.18;;;;;;;;;;5004323;28;20112;-66
2022/12/18 04:27:14;;;;;;;8.80;8.10;;;;;;;;;;5004340;28;20741;-66
2022/12/18 04:29:44;;;;;;;5.93;5.53;;;;;;;;;;5007574;28;20573;-66
2022/12/18 04:32:09;;;;;;;13.75;6.00;;;;;;;;;;5005603;28;20121;-66
2022/12/18 04:34:36;;;;;;;7.00;6.35;;;;;;;;;;5007250;28;20033;-65
2022/12/18 04:37:02;;;;;;;13.00;10.15;;;;;;;;;;5008759;28;20544;-65
2022/12/18 04:39:28;;;;;;;13.38;10.45;;;;;;;;;;5004102;28;21315;-66
2022/12/18 04:42:00;;;;;;;13.30;11.63;;;;;;;;;;5008144;28;20092;-66
2022/12/18 04:44:25;;;;;;;10.45;8.82;;;;;;;;;;5009200;28;20045;-65
2022/12/18 04:46:51;;;;;;;8.05;6.47;;;;;;;;;;5008126;28;20033;-66
2022/12/18 04:49:17;;;;;;;7.97;7.18;;;;;;;;;;5008344;28;20034;-66
2022/12/18 04:51:42;;;;;;;10.00;9.02;;;;;;;;;;5009942;28;20025;-66
2022/12/18 04:54:08;;;;;;;9.32;8.32;;;;;;;;;;5000527;28;20034;-65
2022/12/18 04:56:33;;;;;;;19.17;12.50;;;;;;;;;;5004358;28;20075;-65
2022/12/18 04:58:59;;;;;;;14.25;9.63;;;;;;;;;;5010385;28;20473;-65
2022/12/18 05:01:25;;;;;;;9.23;8.40;;;;;;;;;;5009122;28;20034;-65
2022/12/18 05:03:51;;;;;;;7.63;6.95;;;;;;;;;;5008215;28;20054;-65
2022/12/18 05:06:17;;;;;;;20.67;14.23;;;;;;;;;;5008727;28;20041;-66
2022/12/18 05:08:43;;;;;;;13.10;10.50;;;;;;;;;;5009062;28;20048;-65
2022/12/18 05:11:11;;;;;;;9.40;8.50;;;;;;;;;;5008616;28;20645;-65
2022/12/18 05:13:37;;;;;;;8.32;7.30;;;;;;;;;;5007750;28;20092;-65
2022/12/18 05:16:04;;;;;;;7.32;6.75;;;;;;;;;;5010107;28;20030;-65
2022/12/18 05:18:30;;;;;;;18.17;11.32;;;;;;;;;;5005640;28;20117;-65
2022/12/18 05:20:55;;;;;;;15.55;8.43;;;;;;;;;;5006504;28;20038;-65
2022/12/18 05:23:23;;;;;;;6.97;6.45;;;;;;;;;;5009019;28;20033;-65
2022/12/18 05:25:56;;;;;;;9.18;7.65;;;;;;;;;;5010254;28;20040;-65
2022/12/18 05:28:23;;;;;;;12.18;9.75;;;;;;;;;;5003437;28;20046;-65
2022/12/18 05:30:50;;;;;;;7.95;7.38;;;;;;;;;;5009741;28;20029;-65
2022/12/18 05:33:17;;;;;;;28.05;17.23;;;;;;;;;;5009302;28;20053;-65
2022/12/18 05:35:43;;;;;;;8.48;7.63;;;;;;;;;;5010506;28;20034;-65
2022/12/18 05:38:08;;;;;;;9.18;7.63;;;;;;;;;;5007036;28;20273;-66
2022/12/18 05:40:34;;;;;;;6.43;5.85;;;;;;;;;;5009732;28;20041;-65
2022/12/18 05:42:59;;;;;;;11.40;9.32;;;;;;;;;;5006887;28;20041;-66
2022/12/18 05:45:25;;;;;;;29.38;16.90;;;;;;;;;;5008870;28;20038;-66
2022/12/18 05:47:50;;;;;;;15.98;10.25;;;;;;;;;;5007670;28;20413;-65
2022/12/18 05:50:16;;;;;;;11.43;9.00;;;;;;;;;;5009416;28;20113;-65
2022/12/18 05:52:42;;;;;;;16.20;12.50;;;;;;;;;;5007045;28;20105;-65
2022/12/18 05:55:07;;;;;;;16.13;10.05;;;;;;;;;;5009729;28;20068;-65
2022/12/18 05:57:33;;;;;;;7.63;6.68;;;;;;;;;;5010236;28;20099;-65
2022/12/18 05:59:58;;;;;;;6.75;6.28;;;;;;;;;;5004134;28;20041;-65
2022/12/18 06:02:24;;;;;;;8.65;8.15;;;;;;;;;;4987656;28;20030;-65
2022/12/18 06:04:50;;;;;;;11.68;9.95;;;;;;;;;;4990205;28;20037;-65
2022/12/18 06:07:15;;;;;;;20.98;14.30;;;;;;;;;;4991113;28;20046;-65
2022/12/18 06:09:41;;;;;;;12.38;8.27;;;;;;;;;;4986731;28;20077;-66
2022/12/18 06:12:06;;;;;;;19.27;10.63;;;;;;;;;;4987329;28;20034;-65
2022/12/18 06:14:32;;;;;;;5.50;5.18;;;;;;;;;;4987563;28;20042;-66
2022/12/18 06:16:57;;;;;;;11.60;8.55;;;;;;;;;;4988048;28;20117;-66
2022/12/18 06:19:23;;;;;;;9.80;8.65;;;;;;;;;;4988253;28;20037;-66
2022/12/18 06:21:49;;;;;;;10.95;6.95;;;;;;;;;;4988363;28;20026;-65
2022/12/18 06:24:15;;;;;;;9.27;8.55;;;;;;;;;;4985916;28;20068;-66
2022/12/18 06:26:41;;;;;;;10.27;9.27;;;;;;;;;;4984361;28;20034;-65
2022/12/18 06:29:06;;;;;;;10.63;9.27;;;;;;;;;;4988403;28;20030;-65
2022/12/18 06:31:32;;;;;;;7.72;7.10;;;;;;;;;;4987536;28;20033;-65
2022/12/18 06:33:57;;;;;;;8.30;6.07;;;;;;;;;;4983391;28;20041;-65
2022/12/18 06:36:23;;;;;;;6.20;5.75;;;;;;;;;;4988077;28;20509;-65
2022/12/18 06:38:49;;;;;;;10.35;9.38;;;;;;;;;;4989043;28;20117;-65
2022/12/18 06:41:20;;;;;;;10.18;9.25;;;;;;;;;;4989120;28;20108;-65
2022/12/18 06:43:45;;;;;;;8.50;7.85;;;;;;;;;;4986731;28;20421;-65
2022/12/18 06:46:12;;;;;;;10.38;9.32;;;;;;;;;;4990364;28;20097;-66
2022/12/18 06:48:38;;;;;;;8.35;7.72;;;;;;;;;;4987807;28;20034;-66
2022/12/18 06:51:04;;;;;;;13.75;8.80;;;;;;;;;;4988553;28;20520;-66
2022/12/18 06:53:31;;;;;;;19.65;13.23;;;;;;;;;;4985054;28;20036;-66
2022/12/18 06:56:05;;;;;;;14.48;11.27;;;;;;;;;;4989343;28;20034;-67
2022/12/18 06:58:32;;;;;;;10.35;8.75;;;;;;;;;;4991389;28;20034;-66
2022/12/18 07:01:02;;;;;;;3.92;3.72;;;;;;;;;;4985410;28;20092;-66
2022/12/18 07:03:27;;;;;;;17.50;9.90;;;;;;;;;;4984805;28;20049;-66
2022/12/18 07:05:53;;;;;;;8.95;6.90;;;;;;;;;;4988601;28;20042;-66
2022/12/18 07:08:18;;;;;;;9.68;8.52;;;;;;;;;;4990244;28;20073;-66
2022/12/18 07:10:44;;;;;;;8.77;8.07;;;;;;;;;;4990517;28;20084;-66
2022/12/18 07:13:10;;;;;;;9.65;8.07;;;;;;;;;;4990320;28;20044;-67
2022/12/18 07:15:36;;;;;;;35.67;15.52;;;;;;;;;;4988183;28;20038;-67
2022/12/18 07:18:01;;;;;;;16.23;9.75;;;;;;;;;;4984952;28;20119;-64
2022/12/18 07:20:27;;;;;;;19.15;12.18;;;;;;;;;;4985394;28;20549;-65
2022/12/18 07:22:52;;;;;;;8.60;7.70;;;;;;;;;;4991335;28;20046;-64
2022/12/18 07:25:18;;;;;;;8.55;7.80;;;;;;;;;;4984371;28;20469;-65
2022/12/18 07:27:43;;;;;;;12.13;10.38;;;;;;;;;;4988100;28;20688;-64
2022/12/18 07:30:10;;;;;;;23.30;13.77;;;;;;;;;;4984540;28;20081;-65
2022/12/18 07:32:35;;;;;;;16.73;9.85;;;;;;;;;;4985242;28;20066;-65
2022/12/18 07:35:01;;;;;;;18.25;12.23;;;;;;;;;;4988948;28;20069;-65
2022/12/18 07:37:26;;;;;;;7.63;6.70;;;;;;;;;;4987271;28;20087;-65
2022/12/18 07:39:52;;;;;;;13.43;12.20;;;;;;;;;;4989454;28;20049;-65
2022/12/18 07:42:32;;;;;;;10.82;8.43;;;;;;;;;;4985128;28;20045;-65
2022/12/18 07:44:59;;;;;;;25.65;14.55;;;;;;;;;;4990362;28;20035;-65
2022/12/18 07:47:25;;;;;;;12.07;10.85;;;;;;;;;;4986280;28;20277;-65
2022/12/18 07:49:51;;;;;;;10.45;9.40;;;;;;;;;;4984177;28;20413;-65
2022/12/18 07:52:16;;;;;;;10.60;9.43;;;;;;;;;;4988024;28;20050;-64
2022/12/18 07:54:42;;;;;;;17.30;10.85;;;;;;;;;;4990144;28;20065;-65
2022/12/18 07:57:08;;;;;;;12.35;10.30;;;;;;;;;;4987829;28;20592;-65
2022/12/18 07:59:34;;;;;;;15.27;11.10;;;;;;;;;;4984856;28;20027;-65
2022/12/18 08:02:00;;;;;;;22.88;10.80;;;;;;;;;;4985411;28;20121;-65
2022/12/18 08:04:26;;;;;;;7.40;6.90;;;;;;;;;;5002736;28;20619;-65
2022/12/18 08:06:52;;;;;;;30.15;16.48;;;;;;;;;;4985734;28;20034;-65
2022/12/18 08:09:18;;;;;;;9.10;8.20;;;;;;;;;;4985690;28;20046;-65
2022/12/18 08:11:44;;;;;;;10.80;9.85;;;;;;;;;;4987921;28;20034;-65
2022/12/18 08:14:09;;;;;;;10.68;9.23;;;;;;;;;;4985038;28;20472;-65
2022/12/18 08:16:35;;;;;;;11.80;8.93;;;;;;;;;;4987736;28;20629;-65
2022/12/18 08:19:01;;;;;;;7.90;7.38;;;;;;;;;;4988402;28;20027;-64
2022/12/18 08:21:28;;;;;;;13.45;9.75;;;;;;;;;;4989710;28;20034;-66
2022/12/18 08:23:56;;;;;;;15.88;11.95;;;;;;;;;;4988773;28;20039;-65
2022/12/18 08:26:23;;;;;;;17.02;14.98;;;;;;;;;;4986622;28;20030;-66
2022/12/18 08:28:50;;;;;;;8.95;7.88;;;;;;;;;;4987370;28;20478;-65
2022/12/18 08:31:15;;;;;;;16.42;10.05;;;;;;;;;;4989697;28;20042;-65
2022/12/18 08:33:41;;;;;;;12.32;11.30;;;;;;;;;;4985455;28;20415;-65
2022/12/18 08:36:09;;;;;;;10.57;9.77;;;;;;;;;;4989138;28;20026;-65
2022/12/18 08:38:34;;;;;;;15.80;10.45;;;;;;;;;;4987851;28;20034;-65
2022/12/18 08:41:04;;;;;;;14.18;10.77;;;;;;;;;;4991627;28;20033;-65
2022/12/18 08:46:14;;;;;;;27.95;12.55;;;;;;;;;;4990529;28;20468;-65
2022/12/18 08:48:39;;;;;;;23.92;12.43;;;;;;;;;;4988468;28;20038;-65
2022/12/18 08:51:05;;;;;;;8.65;7.88;;;;;;;;;;4986015;28;20113;-65
2022/12/18 08:53:31;;;;;;;13.85;12.32;;;;;;;;;;4988306;28;20038;-65
2022/12/18 08:55:57;;;;;;;23.27;14.38;;;;;;;;;;4989503;28;20037;-65
2022/12/18 08:58:23;;;;;;;34.65;19.30;;;;;;;;;;4990391;28;20113;-65
2022/12/18 09:00:49;;;;;;;37.47;19.33;;;;;;;;;;4991018;28;20126;-65
2022/12/18 09:03:17;;;;;;;16.77;11.15;;;;;;;;;;4983882;28;20460;-65
2022/12/18 09:05:43;;;;;;;16.90;12.32;;;;;;;;;;4985184;28;20084;-65
2022/12/18 09:08:09;;;;;;;16.23;13.32;;;;;;;;;;4985584;28;20042;-65
2022/12/18 09:10:41;;;;;;;13.85;11.02;;;;;;;;;;4986252;28;20060;-65
2022/12/18 09:13:07;;;;;;;24.52;10.95;;;;;;;;;;4988205;28;20042;-65
2022/12/18 09:15:32;;;;;;;13.32;11.70;;;;;;;;;;4988927;28;20506;-65
2022/12/18 09:17:58;;;;;;;24.77;13.55;;;;;;;;;;4986411;28;20034;-65
2022/12/18 09:20:24;;;;;;;18.27;13.90;;;;;;;;;;4992513;28;20045;-65
2022/12/18 09:22:49;;;;;;;21.65;15.13;;;;;;;;;;4987855;28;20039;-65
2022/12/18 09:25:15;;;;;;;30.38;18.20;;;;;;;;;;4993575;28;20053;-65
2022/12/18 09:27:40;;;;;;;23.75;16.23;;;;;;;;;;4991891;28;20625;-65
2022/12/18 09:30:07;;;;;;;23.90;17.33;;;;;;;;;;4988969;28;20038;-65
2022/12/18 09:32:32;;;;;;;27.55;16.42;;;;;;;;;;4988897;28;20042;-66
2022/12/18 09:34:58;;;;;;;26.25;15.75;;;;;;;;;;4988429;28;20097;-66
2022/12/18 09:37:24;;;;;;;28.52;18.35;;;;;;;;;;4989669;28;20030;-65
2022/12/18 09:39:49;;;;;;;25.42;17.20;;;;;;;;;;4986835;28;20077;-65
2022/12/18 09:42:20;;;;;;;25.13;16.20;;;;;;;;;;4988191;28;20034;-64
2022/12/18 09:44:51;;;;;;;30.92;16.48;;;;;;;;;;4988762;28;20045;-65
2022/12/18 09:47:37;;;;;;;31.73;17.88;;;;;;;;;;4988431;28;20121;-65
2022/12/18 09:50:14;;;;;;;38.15;20.00;;;;;;;;;;4986692;28;20038;-65
2022/12/18 09:52:44;;;;;;;23.38;16.48;;;;;;;;;;4987837;28;20117;-65
2022/12/18 09:55:25;;;;;;;35.70;20.20;;;;;;;;;;4993874;28;20649;-65
2022/12/18 09:58:04;;;;;;;33.78;19.63;;;;;;;;;;4987487;28;20121;-65
2022/12/18 10:00:30;;;;;;;34.80;21.58;;;;;;;;;;4989585;28;20049;-65
2022/12/18 10:03:02;;;;;;;25.02;15.55;;;;;;;;;;4987841;28;20045;-65
2022/12/18 10:05:39;;;;;;;45.30;21.92;;;;;;;;;;4985406;28;20069;-65
2022/12/18 10:08:16;;;;;;;13.55;10.07;;;;;;;;;;4986118;28;20111;-65
2022/12/18 10:11:11;;;;;;;34.72;18.67;;;;;;;;;;4991847;28;20034;-65
2022/12/18 10:13:41;;;;;;;41.25;20.17;;;;;;;;;;4987922;28;20038;-65
2022/12/18 10:16:10;;;;;;;30.85;18.40;;;;;;;;;;4987379;28;20525;-65
2022/12/18 10:19:08;;;;;;;36.13;20.75;;;;;;;;;;4989890;28;20052;-65
2022/12/18 10:21:57;;;;;;;26.38;16.50;;;;;;;;;;4992227;28;20045;-65
2022/12/18 10:24:22;;;;;;;29.90;17.70;;;;;;;;;;4989386;28;20058;-64
2022/12/18 10:26:48;;;;;;;32.55;19.45;;;;;;;;;;4987556;28;20054;-65
2022/12/18 10:29:16;;;;;;;25.83;16.98;;;;;;;;;;4987937;28;20125;-65
2022/12/18 10:31:42;;;;;;;45.37;21.80;;;;;;;;;;4985872;28;20034;-65
2022/12/18 10:34:14;;;;;;;33.70;19.35;;;;;;;;;;4986122;28;20030;-65
2022/12/18 10:36:40;;;;;;;35.92;18.33;;;;;;;;;;4988139;28;20126;-64
2022/12/18 10:39:22;;;;;;;37.42;19.98;;;;;;;;;;4987782;28;20196;-65
2022/12/18 10:41:48;;;;;;;25.85;15.73;;;;;;;;;;4987049;28;20042;-65
2022/12/18 10:44:21;;;;;;;34.20;17.60;;;;;;;;;;4986526;28;20141;-65
2022/12/18 10:46:55;;;;;;;13.23;11.32;;;;;;;;;;4988832;28;20137;-65
2022/12/18 10:49:25;;;;;;;25.77;15.27;;;;;;;;;;4982612;28;20405;-64
2022/12/18 10:51:51;;;;;;;39.08;19.58;;;;;;;;;;4988695;28;20081;-65
2022/12/18 10:54:19;;;;;;;32.33;17.35;;;;;;;;;;4992411;28;20034;-65
2022/12/18 10:56:45;;;;;;;37.20;17.90;;;;;;;;;;4988594;28;20501;-65
2022/12/18 10:59:14;;;;;;;36.20;19.33;;;;;;;;;;4989729;28;20041;-65
2022/12/18 11:01:55;;;;;;;35.25;20.52;;;;;;;;;;4987291;28;20110;-65
2022/12/18 11:04:30;;;;;;;39.92;20.27;;;;;;;;;;4983665;28;20207;-65
2022/12/18 11:07:00;;;;;;;32.50;17.88;;;;;;;;;;4983038;28;20116;-65
2022/12/18 11:09:32;;;;;;;30.80;18.70;;;;;;;;;;4987761;28;20046;-65
2022/12/18 11:12:05;;;;;;;32.63;18.73;;;;;;;;;;4989186;28;20042;-66
2022/12/18 11:14:46;;;;;;;39.72;21.10;;;;;;;;;;4987387;28;20061;-66
2022/12/18 11:17:24;;;;;;;39.75;20.45;;;;;;;;;;4990706;28;20047;-66
2022/12/18 11:19:55;;;;;;;24.00;15.32;;;;;;;;;;4985515;28;20448;-64
2022/12/18 11:22:32;;;;;;;33.30;18.80;;;;;;;;;;4987212;28;20042;-64
2022/12/18 11:25:05;;;;;;;27.70;18.90;;;;;;;;;;4989556;28;20034;-64
2022/12/18 11:27:31;;;;;;;36.92;21.08;;;;;;;;;;4985546;28;20041;-64
2022/12/18 11:30:26;;;;;;;35.22;18.95;;;;;;;;;;4989619;28;20033;-64
2022/12/18 11:32:56;;;;;;;42.85;22.42;;;;;;;;;;4984410;28;20402;-64
2022/12/18 11:35:28;;;;;;;21.00;14.75;;;;;;;;;;4986353;28;20058;-64
2022/12/18 11:37:59;;;;;;;32.63;18.45;;;;;;;;;;4985174;28;20046;-62
2022/12/18 11:40:34;;;;;;;28.20;15.60;;;;;;;;;;4986916;28;20030;-62
2022/12/18 11:43:11;;;;;;;34.30;19.17;;;;;;;;;;4987728;28;20030;-64
2022/12/18 11:46:26;;;;;;;9.93;8.68;;;;;;;;;;4986231;28;20513;-64
2022/12/18 11:48:58;;;;;;;22.40;15.60;;;;;;;;;;5003987;28;20038;-64
2022/12/18 11:51:35;;;;;;;29.83;16.08;;;;;;;;;;5005255;28;20037;-64
2022/12/18 11:54:01;;;;;;;17.95;12.68;;;;;;;;;;5005938;28;20711;-64
2022/12/18 11:56:34;;;;;;;22.50;15.30;;;;;;;;;;5005982;28;20033;-64
2022/12/18 11:59:23;;;;;;;22.52;13.98;;;;;;;;;;5006374;28;20548;-64
2022/12/18 12:01:48;;;;;;;26.15;15.98;;;;;;;;;;5003557;28;20052;-63
2022/12/18 12:04:45;;;;;;;28.05;15.65;;;;;;;;;;5006391;28;20050;-64
2022/12/18 12:07:45;;;;;;;42.13;20.50;;;;;;;;;;5003355;28;20034;-65
2022/12/18 12:10:23;;;;;;;14.63;12.45;;;;;;;;;;5005331;28;20045;-64
2022/12/18 12:13:03;;;;;;;21.77;14.00;;;;;;;;;;5007263;28;20140;-64
2022/12/18 12:16:14;;;;;;;28.85;17.50;;;;;;;;;;5007592;28;20049;-65
2022/12/18 12:19:01;;;;;;;33.55;18.67;;;;;;;;;;4908295;29;20410;-64
2022/12/18 12:21:44;;;;;;;35.08;17.23;;;;;;;;;;5006991;28;20038;-64
2022/12/18 12:24:12;;;;;;;32.53;17.90;;;;;;;;;;5003930;28;20249;-64
2022/12/18 12:27:05;;;;;;;36.92;20.00;;;;;;;;;;4990836;28;20030;-64
2022/12/18 12:29:42;;;;;;;35.72;18.10;;;;;;;;;;4989940;28;20045;-64
2022/12/18 12:32:26;;;;;;;34.90;19.50;;;;;;;;;;4987898;28;20030;-64
2022/12/18 12:35:23;;;;;;;31.85;17.80;;;;;;;;;;4988836;28;20177;-64
2022/12/18 12:38:00;;;;;;;25.27;15.30;;;;;;;;;;4990757;28;20080;-64
2022/12/18 12:40:29;;;;;;;27.15;16.33;;;;;;;;;;4983615;28;20278;-64
2022/12/18 12:43:14;;;;;;;34.10;17.42;;;;;;;;;;4985647;28;20031;-64
2022/12/18 12:45:47;;;;;;;21.60;16.75;;;;;;;;;;4985731;28;20030;-64
2022/12/18 12:48:44;;;;;;;26.23;15.15;;;;;;;;;;4986536;28;20056;-64
2022/12/18 12:51:28;;;;;;;35.42;17.60;;;;;;;;;;4987004;28;20041;-65
2022/12/18 12:53:57;;;;;;;37.72;19.55;;;;;;;;;;4991891;28;20037;-65
2022/12/18 12:56:27;;;;;;;29.50;17.00;;;;;;;;;;4987584;28;20157;-65
2022/12/18 12:59:11;;;;;;;39.63;18.52;;;;;;;;;;4986088;28;20038;-65
2022/12/18 13:02:14;;;;;;;54.03;24.27;;;;;;;;;;4989604;28;20038;-65
2022/12/18 13:04:53;;;;;;;34.53;18.73;;;;;;;;;;4987946;28;20034;-65
2022/12/18 13:07:26;;;;;;;38.45;20.65;;;;;;;;;;4989523;28;20397;-64
2022/12/18 13:10:19;;;;;;;41.05;17.83;;;;;;;;;;4988035;28;20041;-65
2022/12/18 13:12:56;;;;;;;34.30;19.33;;;;;;;;;;4979357;28;20054;-65
2022/12/18 13:15:24;;;;;;;35.33;16.95;;;;;;;;;;4982898;28;20124;-65
2022/12/18 13:18:08;;;;;;;34.63;17.98;;;;;;;;;;4982934;28;20031;-65
2022/12/18 13:20:54;;;;;;;34.15;17.83;;;;;;;;;;4981499;28;20031;-65
2022/12/18 13:23:22;;;;;;;39.70;18.60;;;;;;;;;;4994479;28;20058;-65
2022/12/18 13:25:49;;;;;;;36.92;18.20;;;;;;;;;;4986485;28;20038;-65
2022/12/18 13:28:16;;;;;;;29.95;17.20;;;;;;;;;;4985443;28;20042;-66
2022/12/18 13:30:57;;;;;;;18.75;12.57;;;;;;;;;;4984331;28;20109;-65
2022/12/18 13:33:27;;;;;;;24.63;14.43;;;;;;;;;;4987622;28;20042;-65
2022/12/18 13:36:12;;;;;;;32.90;19.60;;;;;;;;;;4984301;28;20031;-65
2022/12/18 13:38:39;;;;;;;27.60;15.23;;;;;;;;;;4985650;28;20113;-65
2022/12/18 13:41:24;;;;;;;18.48;12.70;;;;;;;;;;4988016;28;20083;-65
2022/12/18 13:43:53;;;;;;;20.73;11.60;;;;;;;;;;4985578;28;21955;-65
2022/12/18 13:46:20;;;;;;;30.35;17.35;;;;;;;;;;5003064;28;20510;-65
2022/12/18 13:49:11;;;;;;;27.75;15.90;;;;;;;;;;4983169;28;20050;-65
2022/12/18 13:51:41;;;;;;;24.70;15.65;;;;;;;;;;4988676;28;20054;-65
2022/12/18 13:54:17;;;;;;;;;;;;;;;;;;4986617;28;20136;-67
2022/12/18 13:56:45;;;;;;;28.35;16.23;;;;;;;;;;4985136;28;19996;-67
2022/12/18 13:59:11;;;;;;;25.38;15.38;;;;;;;;;;4983327;28;20045;-66
2022/12/18 14:01:41;;;;;;;49.22;20.50;;;;;;;;;;4983140;28;20038;-65
2022/12/18 14:04:36;;;;;;;35.13;18.42;;;;;;;;;;4984940;28;20053;-66
2022/12/18 14:07:23;;;;;;;26.08;15.82;;;;;;;;;;4973737;28;20051;-66
2022/12/18 14:09:56;;;;;;;33.38;16.88;;;;;;;;;;4983086;28;20046;-66
2022/12/18 14:15:25;;;;;;;33.22;16.23;;;;;;;;;;4979782;28;20046;-65
2022/12/18 14:18:01;;;;;;;31.77;16.13;;;;;;;;;;4985320;28;20038;-65
2022/12/18 14:20:32;;;;;;;36.42;17.67;;;;;;;;;;4981824;28;20520;-65
2022/12/18 14:22:58;;;;;;;26.88;12.90;;;;;;;;;;4972902;28;20035;-64
2022/12/18 14:25:26;;;;;;;16.15;10.57;;;;;;;;;;4967742;28;20042;-65
2022/12/18 14:28:07;;;;;;;35.17;18.10;;;;;;;;;;4981678;28;20043;-65
2022/12/18 14:30:41;;;;;;;42.25;19.27;;;;;;;;;;4948870;28;20528;-66
2022/12/18 14:33:14;;;;;;;32.58;17.60;;;;;;;;;;4970884;28;20038;-65
2022/12/18 14:35:53;;;;;;;28.23;17.63;;;;;;;;;;4969919;28;20039;-66
2022/12/18 14:38:32;;;;;;;17.27;13.52;;;;;;;;;;4965950;28;20501;-65
2022/12/18 14:41:03;;;;;;;33.58;15.77;;;;;;;;;;4997423;28;20108;-66
2022/12/18 14:43:33;;;;;;;22.23;17.42;;;;;;;;;;4977605;28;20121;-66
2022/12/18 14:46:00;;;;;;;18.55;12.32;;;;;;;;;;4973077;28;20035;-66
2022/12/18 14:48:25;;;;;;;23.27;15.48;;;;;;;;;;4979048;28;20038;-65
2022/12/18 14:51:03;;;;;;;12.63;9.05;;;;;;;;;;4985584;28;20044;-65
2022/12/18 14:53:35;;;;;;;18.95;14.27;;;;;;;;;;4982897;28;20656;-66